createdAt,value
2019-04-28T00:01:35.783Z,12.53
2019-04-28T00:04:04.468Z,12.55
2019-04-28T00:06:33.223Z,12.57
2019-04-28T00:09:01.905Z,12.43
2019-04-28T00:11:31.714Z,12.25
2019-04-28T00:14:01.881Z,12.22
2019-04-28T00:16:31.137Z,12.07
2019-04-28T00:19:01.122Z,12.13
2019-04-28T00:21:32.003Z,12.12
2019-04-28T00:24:18.652Z,12.06
2019-04-28T00:26:52.116Z,12.10
2019-04-28T00:29:21.099Z,12.03
2019-04-28T00:31:51.302Z,11.99
2019-04-28T00:34:21.269Z,11.95
2019-04-28T00:36:51.735Z,11.84
2019-04-28T00:39:22.514Z,11.79
2019-04-28T00:41:51.636Z,11.85
2019-04-28T00:44:21.837Z,11.68
2019-04-28T00:46:51.186Z,11.61
2019-04-28T00:49:23.350Z,11.54
2019-04-28T00:51:52.067Z,11.48
2019-04-28T00:54:21.843Z,11.41
2019-04-28T00:56:51.743Z,11.42
2019-04-28T00:59:21.733Z,11.32
2019-04-28T01:01:52.127Z,11.25
2019-04-28T01:04:21.927Z,11.35
2019-04-28T01:06:52.026Z,11.35
2019-04-28T01:09:21.781Z,11.28
2019-04-28T01:11:51.159Z,11.17
2019-04-28T01:14:21.459Z,11.20
2019-04-28T01:16:51.745Z,11.25
2019-04-28T01:19:24.944Z,11.28
2019-04-28T01:21:57.916Z,11.25
2019-04-28T01:24:26.754Z,11.23
2019-04-28T01:26:56.498Z,11.19
2019-04-28T01:29:25.178Z,11.12
2019-04-28T01:32:11.590Z,11.19
2019-04-28T01:34:40.265Z,11.18
2019-04-28T01:37:09.727Z,11.22
2019-04-28T01:39:40.985Z,11.07
2019-04-28T01:42:10.660Z,10.97
2019-04-28T01:44:39.664Z,10.94
2019-04-28T01:47:10.590Z,10.83
2019-04-28T01:49:40.578Z,10.72
2019-04-28T01:52:10.433Z,10.63
2019-04-28T01:54:40.334Z,10.57
2019-04-28T01:57:10.128Z,10.55
2019-04-28T01:59:40.360Z,10.61
2019-04-28T02:02:13.930Z,10.56
2019-04-28T02:04:42.624Z,10.49
2019-04-28T02:07:11.293Z,10.39
2019-04-28T02:09:40.115Z,10.34
2019-04-28T02:12:10.611Z,10.34
2019-04-28T02:14:40.428Z,10.29
2019-04-28T02:17:10.507Z,10.32
2019-04-28T02:19:41.060Z,10.34
2019-04-28T02:22:11.449Z,10.30
2019-04-28T02:24:40.563Z,10.25
2019-04-28T02:27:10.590Z,10.25
2019-04-28T02:29:41.353Z,10.27
2019-04-28T02:32:11.716Z,10.50
2019-04-28T02:34:41.317Z,10.47
2019-04-28T02:37:11.363Z,10.40
2019-04-28T02:39:41.263Z,10.43
2019-04-28T02:42:11.086Z,10.32
2019-04-28T02:44:40.523Z,10.26
2019-04-28T02:47:10.818Z,10.23
2019-04-28T02:49:56.791Z,10.13
2019-04-28T02:52:30.964Z,10.06
2019-04-28T02:55:02.992Z,9.95
2019-04-28T02:57:31.790Z,9.81
2019-04-28T03:00:00.713Z,9.70
2019-04-28T03:02:31.975Z,9.61
2019-04-28T03:05:00.425Z,9.55
2019-04-28T03:07:31.285Z,9.50
2019-04-28T03:10:03.257Z,9.41
2019-04-28T03:12:31.637Z,9.36
2019-04-28T03:15:00.920Z,9.39
2019-04-28T03:17:31.045Z,9.41
2019-04-28T03:20:00.969Z,9.37
2019-04-28T03:22:32.958Z,9.37
2019-04-28T03:25:02.311Z,9.33
2019-04-28T03:27:50.921Z,9.35
2019-04-28T03:30:23.100Z,9.32
2019-04-28T03:32:59.760Z,9.33
2019-04-28T03:35:24.576Z,9.39
2019-04-28T03:37:53.297Z,9.46
2019-04-28T03:40:22.023Z,9.44
2019-04-28T03:43:02.861Z,9.51
2019-04-28T03:45:31.976Z,9.48
2019-04-28T03:48:00.770Z,9.56
2019-04-28T03:50:31.312Z,9.72
2019-04-28T03:53:01.057Z,9.76
2019-04-28T03:55:34.399Z,9.94
2019-04-28T03:58:03.645Z,9.99
2019-04-28T04:00:31.794Z,10.01
2019-04-28T04:03:03.170Z,10.03
2019-04-28T04:05:37.060Z,10.25
2019-04-28T04:08:07.070Z,10.25
2019-04-28T04:10:41.866Z,10.25
2019-04-28T04:13:14.866Z,10.25
2019-04-28T04:16:02.622Z,10.32
2019-04-28T04:18:32.925Z,10.36
2019-04-28T04:21:01.668Z,10.47
2019-04-28T04:23:31.146Z,10.58
2019-04-28T04:26:02.134Z,10.72
2019-04-28T04:28:30.829Z,10.78
2019-04-28T04:31:00.543Z,10.87
2019-04-28T04:33:31.060Z,10.96
2019-04-28T04:36:01.615Z,11.08
2019-04-28T04:38:31.364Z,11.10
2019-04-28T04:41:01.477Z,11.14
2019-04-28T04:43:31.267Z,11.36
2019-04-28T04:46:14.766Z,11.78
2019-04-28T04:48:46.610Z,12.18
2019-04-28T04:51:15.428Z,12.69
2019-04-28T04:53:44.329Z,13.00
2019-04-28T04:56:13.048Z,13.11
2019-04-28T04:58:42.078Z,13.28
2019-04-28T05:01:13.269Z,13.27
2019-04-28T05:03:43.558Z,13.48
2019-04-28T05:06:30.432Z,13.62
2019-04-28T05:08:59.933Z,13.79
2019-04-28T05:11:29.995Z,14.15
2019-04-28T05:13:59.690Z,14.29
2019-04-28T05:16:29.783Z,14.34
2019-04-28T05:19:00.066Z,14.39
2019-04-28T05:21:32.864Z,14.48
2019-04-28T05:24:09.183Z,14.53
2019-04-28T05:26:42.499Z,14.79
2019-04-28T05:29:07.502Z,14.92
2019-04-28T05:31:36.227Z,15.07
2019-04-28T05:34:08.061Z,15.34
2019-04-28T05:36:40.932Z,15.40
2019-04-28T05:39:07.676Z,15.59
2019-04-28T05:41:36.471Z,15.78
2019-04-28T05:44:05.288Z,15.88
2019-04-28T05:46:34.005Z,15.91
2019-04-28T05:49:14.275Z,16.05
2019-04-28T05:51:44.567Z,16.14
2019-04-28T05:54:31.218Z,16.46
2019-04-28T05:57:02.621Z,16.53
2019-04-28T05:59:42.359Z,16.76
2019-04-28T06:02:15.546Z,17.03
2019-04-28T06:04:44.261Z,17.37
2019-04-28T06:07:17.393Z,17.66
2019-04-28T06:09:47.684Z,17.99
2019-04-28T06:12:17.714Z,17.89
2019-04-28T06:14:46.658Z,17.85
2019-04-28T06:17:15.380Z,17.96
2019-04-28T06:19:44.107Z,17.88
2019-04-28T06:22:12.975Z,17.73
2019-04-28T06:24:41.694Z,17.82
2019-04-28T06:27:10.418Z,17.61
2019-04-28T06:29:39.427Z,17.52
2019-04-28T06:32:08.142Z,17.44
2019-04-28T06:34:36.854Z,17.45
2019-04-28T06:37:05.649Z,17.27
2019-04-28T06:39:34.367Z,17.43
2019-04-28T06:42:03.099Z,17.53
2019-04-28T06:44:31.906Z,17.91
2019-04-28T06:47:00.624Z,18.14
2019-04-28T06:49:29.341Z,18.38
2019-04-28T06:52:04.014Z,18.63
2019-04-28T06:54:32.735Z,18.70
2019-04-28T06:57:01.465Z,18.96
2019-04-28T06:59:30.317Z,19.32
2019-04-28T07:01:59.035Z,19.23
2019-04-28T07:04:27.759Z,19.20
2019-04-28T07:06:56.516Z,19.27
2019-04-28T07:09:25.369Z,19.55
2019-04-28T07:11:54.140Z,19.76
2019-04-28T07:14:22.978Z,19.79
2019-04-28T07:16:51.790Z,19.93
2019-04-28T07:19:20.515Z,19.84
2019-04-28T07:22:04.422Z,19.64
2019-04-28T07:24:33.149Z,19.83
2019-04-28T07:27:01.860Z,19.70
2019-04-28T07:29:30.721Z,20.14
2019-04-28T07:31:59.545Z,20.51
2019-04-28T07:34:28.258Z,20.47
2019-04-28T07:36:57.227Z,20.60
2019-04-28T07:39:25.984Z,20.79
2019-04-28T07:41:54.669Z,20.70
2019-04-28T07:44:23.429Z,20.43
2019-04-28T07:46:52.140Z,20.24
2019-04-28T07:49:20.853Z,20.45
2019-04-28T07:51:54.329Z,20.31
2019-04-28T07:54:23.532Z,20.71
2019-04-28T07:56:52.249Z,20.95
2019-04-28T07:59:21.135Z,20.94
2019-04-28T08:01:50.047Z,20.72
2019-04-28T08:04:18.782Z,20.83
2019-04-28T08:06:47.549Z,20.84
2019-04-28T08:09:18.298Z,21.14
2019-04-28T08:11:47.250Z,21.43
2019-04-28T08:14:15.979Z,21.47
2019-04-28T08:16:44.693Z,21.45
2019-04-28T08:19:13.538Z,21.29
2019-04-28T08:21:42.258Z,21.31
2019-04-28T08:24:11.081Z,21.58
2019-04-28T08:26:39.974Z,21.05
2019-04-28T08:29:08.687Z,21.08
2019-04-28T08:31:51.136Z,20.96
2019-04-28T08:34:21.420Z,21.27
2019-04-28T08:36:50.135Z,21.26
2019-04-28T08:39:19.014Z,21.16
2019-04-28T08:41:47.731Z,21.01
2019-04-28T08:44:16.450Z,21.10
2019-04-28T08:46:46.039Z,20.78
2019-04-28T08:49:14.753Z,21.23
2019-04-28T08:51:43.467Z,21.40
2019-04-28T08:54:12.265Z,21.47
2019-04-28T08:56:40.973Z,21.47
2019-04-28T08:59:09.689Z,21.30
2019-04-28T09:01:38.479Z,21.58
2019-04-28T09:04:15.056Z,21.71
2019-04-28T09:06:37.651Z,21.95
2019-04-28T09:09:08.174Z,22.09
2019-04-28T09:11:36.889Z,22.33
2019-04-28T09:14:05.604Z,22.17
2019-04-28T09:16:34.417Z,22.34
2019-04-28T09:19:03.130Z,22.59
2019-04-28T09:21:31.937Z,22.87
2019-04-28T09:24:00.690Z,23.05
2019-04-28T09:26:29.412Z,22.75
2019-04-28T09:28:58.168Z,22.60
2019-04-28T09:31:27.034Z,22.46
2019-04-28T09:36:26.125Z,22.12
2019-04-28T09:38:56.496Z,22.22
2019-04-28T09:41:25.311Z,22.15
2019-04-28T09:44:07.973Z,22.07
2019-04-28T09:46:38.260Z,21.98
2019-04-28T09:49:07.088Z,21.68
2019-04-28T09:51:35.936Z,21.69
2019-04-28T09:54:04.858Z,21.76
2019-04-28T09:56:33.590Z,21.89
2019-04-28T09:59:02.357Z,21.94
2019-04-28T10:01:31.071Z,22.18
2019-04-28T10:03:59.791Z,22.64
2019-04-28T10:06:28.547Z,22.81
2019-04-28T10:08:57.266Z,22.52
2019-04-28T10:11:30.642Z,22.23
2019-04-28T10:13:57.073Z,21.90
2019-04-28T10:16:26.010Z,21.87
2019-04-28T10:18:54.724Z,22.10
2019-04-28T10:21:23.605Z,22.20
2019-04-28T10:23:52.348Z,22.35
2019-04-28T10:26:21.067Z,22.47
2019-04-28T10:28:49.837Z,23.10
2019-04-28T10:31:18.553Z,23.06
2019-04-28T10:33:48.844Z,22.93
2019-04-28T10:36:17.681Z,22.76
2019-04-28T10:38:47.977Z,23.03
2019-04-28T10:41:24.699Z,23.36
2019-04-28T10:43:53.416Z,23.53
2019-04-28T10:46:22.238Z,23.68
2019-04-28T10:48:51.222Z,23.71
2019-04-28T10:51:19.982Z,23.49
2019-04-28T10:53:48.669Z,23.55
2019-04-28T10:56:17.515Z,23.29
2019-04-28T10:58:47.810Z,23.30
2019-04-28T11:01:16.532Z,23.49
2019-04-28T11:03:46.973Z,23.54
2019-04-28T11:06:15.873Z,23.75
2019-04-28T11:08:55.019Z,23.91
2019-04-28T11:11:25.542Z,23.92
2019-04-28T11:13:54.271Z,23.96
2019-04-28T11:16:27.642Z,24.21
2019-04-28T11:18:56.369Z,24.18
2019-04-28T11:21:25.087Z,24.04
2019-04-28T11:23:53.961Z,24.05
2019-04-28T11:26:22.718Z,24.12
2019-04-28T11:28:54.608Z,24.22
2019-04-28T11:31:23.489Z,24.20
2019-04-28T11:33:53.779Z,24.05
2019-04-28T11:36:22.606Z,24.33
2019-04-28T11:38:52.585Z,24.43
2019-04-28T11:41:21.308Z,24.54
2019-04-28T11:43:50.021Z,24.77
2019-04-28T11:46:20.362Z,24.63
2019-04-28T11:48:49.086Z,24.20
2019-04-28T11:51:17.800Z,24.46
2019-04-28T11:53:46.573Z,24.82
2019-04-28T11:56:15.295Z,24.64
2019-04-28T11:58:44.023Z,24.95
2019-04-28T12:01:13.778Z,24.70
2019-04-28T12:03:42.496Z,24.72
2019-04-28T12:06:11.413Z,24.58
2019-04-28T12:08:41.074Z,24.65
2019-04-28T12:11:14.537Z,24.47
2019-04-28T12:14:01.580Z,24.81
2019-04-28T12:16:43.879Z,25.14
2019-04-28T12:19:14.199Z,25.13
2019-04-28T12:21:42.922Z,24.87
2019-04-28T12:24:11.644Z,24.82
2019-04-28T12:26:40.454Z,24.64
2019-04-28T12:29:09.976Z,24.67
2019-04-28T12:31:38.690Z,24.95
2019-04-28T12:34:07.476Z,24.89
2019-04-28T12:36:36.194Z,24.65
2019-04-28T12:39:07.895Z,24.46
2019-04-28T12:41:36.656Z,24.45
2019-04-28T12:44:05.370Z,24.43
2019-04-28T12:46:34.090Z,24.19
2019-04-28T12:49:13.614Z,24.00
2019-04-28T12:51:42.339Z,24.04
2019-04-28T12:54:12.671Z,24.30
2019-04-28T12:56:41.571Z,24.49
2019-04-28T12:59:14.559Z,24.18
2019-04-28T13:01:47.977Z,23.77
2019-04-28T13:04:30.518Z,24.01
2019-04-28T13:07:03.641Z,24.06
2019-04-28T13:09:32.581Z,23.89
2019-04-28T13:12:01.283Z,23.79
2019-04-28T13:14:30.163Z,23.86
2019-04-28T13:16:58.881Z,23.77
2019-04-28T13:19:27.602Z,23.46
2019-04-28T13:21:56.480Z,23.38
2019-04-28T13:24:25.199Z,23.18
2019-04-28T13:26:53.919Z,23.01
2019-04-28T13:29:22.730Z,23.03
2019-04-28T13:31:51.471Z,23.07
2019-04-28T13:34:21.760Z,22.85
2019-04-28T13:36:50.518Z,23.13
2019-04-28T13:39:20.807Z,23.63
2019-04-28T13:41:49.532Z,24.37
2019-04-28T13:44:19.973Z,24.97
2019-04-28T13:46:48.693Z,25.46
2019-04-28T13:49:18.226Z,25.52
2019-04-28T13:51:47.077Z,24.97
2019-04-28T13:54:17.367Z,24.45
2019-04-28T13:56:46.084Z,23.83
2019-04-28T13:59:16.748Z,23.25
2019-04-28T14:01:47.055Z,22.77
2019-04-28T14:04:20.124Z,22.18
2019-04-28T14:06:50.555Z,22.18
2019-04-28T14:09:19.284Z,22.43
2019-04-28T14:11:48.125Z,22.60
2019-04-28T14:14:16.856Z,22.61
2019-04-28T14:16:45.653Z,22.58
2019-04-28T14:19:14.602Z,22.26
2019-04-28T14:21:43.367Z,22.02
2019-04-28T14:24:12.126Z,21.79
2019-04-28T14:26:41.796Z,21.78
2019-04-28T14:29:10.563Z,22.03
2019-04-28T14:31:39.361Z,22.17
2019-04-28T14:34:09.062Z,22.53
2019-04-28T14:36:42.150Z,23.45
2019-04-28T14:39:08.857Z,24.01
2019-04-28T14:41:38.506Z,24.41
2019-04-28T14:44:07.269Z,24.78
2019-04-28T14:46:36.037Z,24.55
2019-04-28T14:49:05.150Z,24.42
2019-04-28T14:51:34.027Z,24.10
2019-04-28T14:54:02.742Z,24.44
2019-04-28T14:56:31.524Z,24.40
2019-04-28T14:59:00.324Z,24.51
2019-04-28T15:01:46.695Z,24.59
2019-04-28T15:04:20.950Z,24.73
2019-04-28T15:06:55.733Z,25.21
2019-04-28T15:09:26.272Z,24.81
2019-04-28T15:11:56.628Z,24.63
2019-04-28T15:14:26.886Z,24.74
2019-04-28T15:17:05.320Z,24.47
2019-04-28T15:19:34.087Z,24.26
2019-04-28T15:22:02.810Z,24.54
2019-04-28T15:24:31.526Z,24.48
2019-04-28T15:27:00.286Z,24.45
2019-04-28T15:29:29.003Z,24.25
2019-04-28T15:31:57.719Z,24.30
2019-04-28T15:34:27.935Z,24.32
2019-04-28T15:37:09.221Z,24.12
2019-04-28T15:39:27.096Z,23.65
2019-04-28T15:42:10.231Z,23.45
2019-04-28T15:44:38.949Z,23.22
2019-04-28T15:47:07.766Z,22.86
2019-04-28T15:49:36.483Z,22.58
2019-04-28T15:52:05.200Z,22.43
2019-04-28T15:54:33.962Z,22.53
2019-04-28T15:57:02.675Z,22.37
2019-04-28T15:59:31.388Z,22.31
2019-04-28T16:02:00.171Z,22.52
2019-04-28T16:04:28.950Z,22.43
2019-04-28T16:06:57.680Z,22.25
2019-04-28T16:09:26.464Z,21.86
2019-04-28T16:11:55.181Z,21.88
2019-04-28T16:14:23.895Z,21.96
2019-04-28T16:16:52.767Z,22.01
2019-04-28T16:19:21.492Z,22.14
2019-04-28T16:21:50.216Z,22.24
2019-04-28T16:24:18.997Z,22.12
2019-04-28T16:26:47.716Z,21.80
2019-04-28T16:29:16.434Z,21.54
2019-04-28T16:31:45.310Z,21.13
2019-04-28T16:34:14.031Z,20.89
2019-04-28T16:36:42.785Z,20.83
2019-04-28T16:39:11.590Z,20.63
2019-04-28T16:42:02.347Z,20.41
2019-04-28T16:44:39.095Z,20.22
2019-04-28T16:47:07.810Z,20.02
2019-04-28T16:49:36.534Z,19.82
2019-04-28T16:52:05.332Z,19.64
2019-04-28T16:54:34.047Z,19.51
2019-04-28T16:57:16.754Z,19.33
2019-04-28T16:59:47.054Z,19.38
2019-04-28T17:02:20.451Z,19.40
2019-04-28T17:04:49.261Z,19.26
2019-04-28T17:07:17.990Z,19.16
2019-04-28T17:09:46.718Z,19.08
2019-04-28T17:12:15.682Z,19.12
2019-04-28T17:14:44.415Z,19.01
2019-04-28T17:17:13.141Z,18.97
2019-04-28T17:19:42.019Z,18.90
2019-04-28T17:22:10.740Z,18.94
2019-04-28T17:24:39.455Z,19.01
2019-04-28T17:27:08.228Z,18.82
2019-04-28T17:29:38.051Z,18.72
2019-04-28T17:32:06.958Z,18.61
2019-04-28T17:34:36.694Z,18.55
2019-04-28T17:37:05.442Z,18.53
2019-04-28T17:39:34.874Z,18.47
2019-04-28T17:42:04.665Z,18.36
2019-04-28T17:44:33.383Z,18.23
2019-04-28T17:47:02.094Z,18.13
2019-04-28T17:49:32.533Z,17.96
2019-04-28T17:52:01.351Z,17.74
2019-04-28T17:54:30.068Z,17.64
2019-04-28T17:56:59.083Z,17.51
2019-04-28T17:59:27.804Z,17.33
2019-04-28T18:02:10.360Z,17.13
2019-04-28T18:04:52.885Z,16.86
2019-04-28T18:07:24.042Z,16.81
2019-04-28T18:09:52.765Z,16.69
2019-04-28T18:12:21.483Z,16.91
2019-04-28T18:14:51.818Z,16.96
2019-04-28T18:17:31.321Z,16.75
2019-04-28T18:20:00.715Z,16.63
2019-04-28T18:22:29.436Z,16.73
2019-04-28T18:24:58.155Z,16.70
2019-04-28T18:27:26.931Z,16.70
2019-04-28T18:29:55.653Z,16.49
2019-04-28T18:32:25.952Z,16.44
2019-04-28T18:35:00.069Z,16.40
2019-04-28T18:37:47.078Z,16.15
2019-04-28T18:40:23.987Z,16.02
2019-04-28T18:42:57.275Z,16.09
2019-04-28T18:45:25.991Z,16.25
2019-04-28T18:47:54.933Z,16.38
2019-04-28T18:50:23.654Z,16.32
2019-04-28T18:52:52.374Z,16.11
2019-04-28T18:55:22.316Z,16.21
2019-04-28T18:57:51.043Z,16.18
2019-04-28T19:00:21.331Z,15.95
2019-04-28T19:02:50.127Z,15.96
2019-04-28T19:05:19.853Z,15.83
2019-04-28T19:07:50.144Z,15.62
2019-04-28T19:10:36.609Z,15.44
2019-04-28T19:13:09.647Z,15.29
2019-04-28T19:15:46.042Z,15.08
2019-04-28T19:18:25.423Z,14.97
2019-04-28T19:20:54.292Z,14.99
2019-04-28T19:23:23.008Z,15.12
2019-04-28T19:25:51.736Z,15.12
2019-04-28T19:28:20.497Z,15.10
2019-04-28T19:30:49.211Z,15.00
2019-04-28T19:33:17.934Z,14.82
2019-04-28T19:35:46.688Z,15.12
2019-04-28T19:38:15.411Z,15.32
2019-04-28T19:40:44.164Z,15.13
2019-04-28T19:43:12.971Z,14.93
2019-04-28T19:45:43.304Z,14.99
2019-04-28T19:48:12.020Z,14.80
2019-04-28T19:50:40.807Z,14.58
2019-04-28T19:53:09.534Z,14.36
2019-04-28T19:55:39.820Z,14.26
2019-04-28T19:58:10.272Z,14.32
2019-04-28T20:00:46.494Z,14.47
2019-04-28T20:03:15.225Z,14.35
2019-04-28T20:05:44.071Z,14.27
2019-04-28T20:08:12.810Z,14.17
2019-04-28T20:10:41.508Z,14.06
2019-04-28T20:13:10.283Z,14.05
2019-04-28T20:15:39.003Z,14.03
2019-04-28T20:18:07.720Z,14.06
2019-04-28T20:20:36.592Z,13.95
2019-04-28T20:23:05.313Z,13.97
2019-04-28T20:25:35.369Z,14.00
2019-04-28T20:28:04.427Z,13.85
2019-04-28T20:30:33.144Z,13.72
2019-04-28T20:33:07.525Z,13.76
2019-04-28T20:35:33.918Z,13.77
2019-04-28T20:38:07.163Z,13.76
2019-04-28T20:40:37.494Z,13.62
2019-04-28T20:43:17.251Z,13.54
2019-04-28T20:45:45.972Z,13.43
2019-04-28T20:48:14.691Z,13.47
2019-04-28T20:50:43.454Z,13.58
2019-04-28T20:53:12.177Z,13.43
2019-04-28T20:55:40.891Z,13.29
2019-04-28T20:58:09.742Z,13.07
2019-04-28T21:00:38.464Z,12.93
2019-04-28T21:03:07.181Z,12.76
2019-04-28T21:05:36.048Z,12.65
2019-04-28T21:08:04.764Z,12.59
2019-04-28T21:10:38.315Z,12.53
2019-04-28T21:13:05.035Z,12.51
2019-04-28T21:15:33.755Z,12.52
2019-04-28T21:18:02.477Z,12.53
2019-04-28T21:20:31.351Z,12.74
2019-04-28T21:23:00.073Z,12.92
2019-04-28T21:25:28.787Z,12.92
2019-04-28T21:27:57.627Z,13.02
2019-04-28T21:30:26.340Z,13.16
2019-04-28T21:32:55.058Z,13.28
2019-04-28T21:35:24.003Z,13.40
2019-04-28T21:37:52.722Z,13.63
2019-04-28T21:40:21.741Z,13.64
2019-04-28T21:42:58.066Z,13.66
2019-04-28T21:45:44.746Z,13.50
2019-04-28T21:48:15.318Z,13.54
2019-04-28T21:50:44.031Z,13.21
2019-04-28T21:53:12.747Z,13.00
2019-04-28T21:55:41.584Z,12.82
2019-04-28T21:58:10.307Z,12.62
2019-04-28T22:00:51.124Z,12.44
2019-04-28T22:03:19.839Z,12.35
2019-04-28T22:05:48.556Z,12.41
2019-04-28T22:08:17.302Z,12.32
2019-04-28T22:10:46.022Z,12.40
2019-04-28T22:13:14.740Z,12.48
2019-04-28T22:15:43.602Z,12.46
2019-04-28T22:18:12.314Z,12.48
2019-04-28T22:20:41.034Z,12.50
2019-04-28T22:23:18.799Z,12.54
2019-04-28T22:25:44.861Z,12.51
2019-04-28T22:28:13.591Z,12.47
2019-04-28T22:30:42.348Z,12.41
2019-04-28T22:33:11.061Z,12.35
2019-04-28T22:35:39.772Z,12.19
2019-04-28T22:38:08.572Z,12.09
2019-04-28T22:40:37.390Z,12.13
2019-04-28T22:43:06.201Z,12.16
2019-04-28T22:45:35.152Z,12.10
2019-04-28T22:48:04.632Z,12.00
2019-04-28T22:50:36.037Z,11.95
2019-04-28T22:53:04.992Z,11.94
2019-04-28T22:55:35.278Z,11.99
2019-04-28T22:58:08.546Z,11.80
2019-04-28T23:00:38.980Z,11.95
2019-04-28T23:03:09.471Z,11.76
2019-04-28T23:05:38.191Z,11.38
2019-04-28T23:08:07.765Z,11.08
2019-04-28T23:10:36.488Z,10.83
2019-04-28T23:13:05.700Z,10.69
2019-04-28T23:15:34.578Z,10.58
2019-04-28T23:18:03.395Z,10.45
2019-04-28T23:20:33.681Z,10.42
2019-04-28T23:23:04.116Z,10.43
2019-04-28T23:25:32.865Z,10.40
2019-04-28T23:28:01.585Z,10.53
2019-04-28T23:30:45.266Z,10.58
2019-04-28T23:33:13.987Z,10.52
2019-04-28T23:35:42.798Z,10.68
2019-04-28T23:38:11.573Z,10.62
2019-04-28T23:40:41.852Z,10.48
2019-04-28T23:43:12.147Z,10.48
2019-04-28T23:45:41.006Z,10.41
2019-04-28T23:48:09.819Z,10.35
2019-04-28T23:50:55.147Z,10.28
2019-04-28T23:53:41.496Z,10.22
2019-04-28T23:56:10.332Z,10.27
2019-04-28T23:58:39.152Z,10.40
